createdAt,value
2023-05-25T00:01:01.857Z,100.00
2023-05-25T00:03:25.429Z,100.00
2023-05-25T00:05:54.941Z,100.00
2023-05-25T00:08:24.459Z,100.00
2023-05-25T00:10:54.100Z,100.00
2023-05-25T00:13:23.463Z,100.00
2023-05-25T00:15:52.904Z,100.00
2023-05-25T00:18:22.314Z,100.00
2023-05-25T00:20:53.724Z,100.00
2023-05-25T00:23:23.091Z,100.00
2023-05-25T00:25:52.408Z,100.00
2023-05-25T00:28:21.856Z,100.00
2023-05-25T00:30:51.731Z,100.00
2023-05-25T00:33:22.063Z,100.00
2023-05-25T00:35:52.651Z,100.00
2023-05-25T00:38:22.403Z,100.00
2023-05-25T00:40:57.059Z,100.00
2023-05-25T00:43:26.599Z,100.00
2023-05-25T00:45:56.311Z,100.00
2023-05-25T00:48:27.508Z,100.00
2023-05-25T00:50:58.124Z,100.00
2023-05-25T00:53:28.318Z,100.00
2023-05-25T00:56:18.100Z,100.00
2023-05-25T00:58:48.387Z,100.00
2023-05-25T01:01:18.028Z,100.00
2023-05-25T01:03:51.459Z,100.00
2023-05-25T01:06:23.210Z,100.00
2023-05-25T01:08:56.905Z,100.00
2023-05-25T01:11:28.844Z,100.00
2023-05-25T01:13:58.494Z,100.00
2023-05-25T01:16:29.507Z,100.00
2023-05-25T01:18:58.916Z,100.00
2023-05-25T01:21:41.631Z,100.00
2023-05-25T01:24:22.327Z,100.00
2023-05-25T01:27:01.806Z,100.00
2023-05-25T01:29:32.775Z,100.00
2023-05-25T01:32:03.990Z,100.00
2023-05-25T01:34:36.131Z,100.00
2023-05-25T01:37:05.739Z,100.00
2023-05-25T01:39:36.980Z,100.00
2023-05-25T01:42:06.601Z,100.00
2023-05-25T01:44:37.663Z,100.00
2023-05-25T01:47:21.316Z,100.00
2023-05-25T01:50:01.269Z,100.00
2023-05-25T01:52:39.859Z,100.00
2023-05-25T01:55:12.829Z,100.00
2023-05-25T01:57:44.260Z,100.00
2023-05-25T02:00:14.767Z,100.00
2023-05-25T02:02:47.580Z,100.00
2023-05-25T02:05:17.375Z,100.00
2023-05-25T02:07:47.691Z,100.00
2023-05-25T02:10:17.075Z,100.00
2023-05-25T02:12:46.800Z,100.00
2023-05-25T02:15:17.164Z,100.00
2023-05-25T02:17:48.401Z,100.00
2023-05-25T02:20:18.459Z,100.00
2023-05-25T02:22:48.513Z,100.00
2023-05-25T02:25:17.964Z,100.00
2023-05-25T02:27:47.396Z,100.00
2023-05-25T02:30:16.783Z,100.00
2023-05-25T02:32:46.304Z,100.00
2023-05-25T02:35:15.705Z,100.00
2023-05-25T02:37:45.073Z,100.00
2023-05-25T02:40:15.278Z,100.00
2023-05-25T02:42:44.778Z,100.00
2023-05-25T02:45:14.194Z,100.00
2023-05-25T02:47:43.550Z,100.00
2023-05-25T02:50:14.190Z,100.00
2023-05-25T02:52:45.439Z,100.00
2023-05-25T02:55:14.781Z,100.00
2023-05-25T02:57:44.306Z,100.00
2023-05-25T03:00:17.165Z,100.00
2023-05-25T03:02:48.237Z,100.00
2023-05-25T03:05:19.297Z,100.00
2023-05-25T03:07:49.316Z,100.00
2023-05-25T03:10:18.714Z,100.00
2023-05-25T03:12:48.378Z,100.00
2023-05-25T03:15:17.833Z,100.00
2023-05-25T03:17:47.480Z,100.00
2023-05-25T03:20:17.818Z,100.00
2023-05-25T03:22:48.246Z,100.00
2023-05-25T03:25:17.664Z,100.00
2023-05-25T03:27:47.001Z,100.00
2023-05-25T03:30:17.795Z,100.00
2023-05-25T03:32:47.602Z,100.00
2023-05-25T03:35:17.192Z,100.00
2023-05-25T03:37:46.620Z,100.00
2023-05-25T03:40:16.006Z,100.00
2023-05-25T03:42:45.558Z,100.00
2023-05-25T03:45:14.991Z,100.00
2023-05-25T03:47:45.737Z,100.00
2023-05-25T03:50:15.243Z,100.00
2023-05-25T03:52:44.511Z,100.00
2023-05-25T03:55:16.038Z,100.00
2023-05-25T03:57:46.598Z,100.00
2023-05-25T04:00:17.123Z,100.00
2023-05-25T04:02:46.494Z,100.00
2023-05-25T04:05:16.250Z,100.00
2023-05-25T04:07:46.193Z,100.00
2023-05-25T04:10:15.531Z,100.00
2023-05-25T04:12:44.864Z,100.00
2023-05-25T04:15:14.492Z,100.00
2023-05-25T04:17:45.675Z,100.00
2023-05-25T04:20:15.518Z,100.00
2023-05-25T04:22:45.125Z,100.00
2023-05-25T04:25:14.565Z,100.00
2023-05-25T04:27:45.807Z,100.00
2023-05-25T04:30:16.422Z,100.00
2023-05-25T04:32:47.486Z,100.00
2023-05-25T04:35:31.828Z,100.00
2023-05-25T04:38:03.156Z,100.00
2023-05-25T04:40:34.594Z,100.00
2023-05-25T04:43:05.281Z,100.00
2023-05-25T04:45:34.676Z,100.00
2023-05-25T04:48:05.129Z,100.00
2023-05-25T04:50:34.498Z,100.00
2023-05-25T04:53:04.148Z,100.00
2023-05-25T04:55:33.804Z,100.00
2023-05-25T04:58:05.021Z,100.00
2023-05-25T05:00:34.539Z,100.00
2023-05-25T05:03:05.486Z,100.00
2023-05-25T05:05:37.061Z,100.00
2023-05-25T05:08:08.179Z,100.00
2023-05-25T05:10:37.718Z,100.00
2023-05-25T05:13:07.943Z,100.00
2023-05-25T05:15:37.621Z,100.00
2023-05-25T05:18:08.818Z,100.00
2023-05-25T05:20:39.134Z,100.00
2023-05-25T05:23:08.571Z,100.00
2023-05-25T05:25:38.164Z,100.00
2023-05-25T05:28:08.125Z,100.00
2023-05-25T05:30:39.300Z,100.00
2023-05-25T05:33:09.753Z,100.00
2023-05-25T05:35:41.030Z,100.00
2023-05-25T05:38:12.121Z,100.00
2023-05-25T05:40:41.501Z,100.00
2023-05-25T05:43:14.948Z,100.00
2023-05-25T05:45:44.918Z,98.97
2023-05-25T05:48:14.630Z,98.37
2023-05-25T05:50:44.309Z,97.45
2023-05-25T05:53:15.669Z,99.34
2023-05-25T05:55:46.945Z,99.03
2023-05-25T05:58:16.471Z,98.52
2023-05-25T06:00:46.482Z,98.84
2023-05-25T06:03:15.943Z,98.31
2023-05-25T06:05:46.048Z,97.88
2023-05-25T06:08:16.138Z,98.48
2023-05-25T06:10:45.616Z,98.02
2023-05-25T06:13:16.547Z,98.49
2023-05-25T06:15:46.258Z,97.85
2023-05-25T06:18:17.748Z,96.95
2023-05-25T06:20:47.867Z,96.55
2023-05-25T06:23:18.827Z,94.19
2023-05-25T06:25:48.688Z,93.08
2023-05-25T06:28:18.015Z,93.78
2023-05-25T06:30:47.529Z,93.71
2023-05-25T06:33:17.025Z,92.87
2023-05-25T06:35:47.026Z,92.37
2023-05-25T06:38:16.798Z,91.80
2023-05-25T06:40:46.372Z,92.32
2023-05-25T06:43:16.045Z,92.57
2023-05-25T06:45:56.462Z,91.74
2023-05-25T06:48:27.043Z,90.73
2023-05-25T06:50:56.371Z,90.34
2023-05-25T06:53:25.805Z,90.09
2023-05-25T06:55:55.151Z,90.55
2023-05-25T06:58:24.565Z,90.65
2023-05-25T07:00:54.115Z,90.19
2023-05-25T07:03:23.439Z,91.31
2023-05-25T07:05:52.905Z,89.38
2023-05-25T07:08:22.200Z,89.02
2023-05-25T07:10:51.714Z,88.22
2023-05-25T07:13:21.120Z,86.27
2023-05-25T07:15:52.299Z,86.35
2023-05-25T07:18:21.626Z,87.07
2023-05-25T07:20:51.554Z,87.27
2023-05-25T07:23:20.965Z,87.85
2023-05-25T07:25:50.299Z,86.89
2023-05-25T07:28:19.618Z,87.08
2023-05-25T07:30:49.111Z,88.12
2023-05-25T07:33:18.407Z,87.72
2023-05-25T07:35:48.029Z,85.70
2023-05-25T07:38:17.379Z,87.03
2023-05-25T07:40:47.571Z,86.72
2023-05-25T07:43:16.892Z,85.59
2023-05-25T07:45:46.351Z,85.63
2023-05-25T07:48:16.324Z,84.17
2023-05-25T07:50:45.807Z,83.12
2023-05-25T07:53:15.573Z,84.33
2023-05-25T07:55:45.136Z,83.38
2023-05-25T07:58:14.836Z,84.01
2023-05-25T08:00:44.246Z,81.27
2023-05-25T08:03:13.815Z,80.10
2023-05-25T08:05:44.353Z,81.62
2023-05-25T08:08:14.516Z,81.37
2023-05-25T08:10:44.042Z,79.94
2023-05-25T08:13:13.402Z,81.50
2023-05-25T08:15:42.886Z,77.62
2023-05-25T08:18:12.311Z,79.47
2023-05-25T08:20:42.189Z,79.50
2023-05-25T08:23:11.648Z,78.03
2023-05-25T08:25:41.320Z,79.30
2023-05-25T08:28:11.209Z,79.00
2023-05-25T08:30:41.368Z,78.07
2023-05-25T08:33:11.737Z,79.33
2023-05-25T08:35:43.356Z,78.65
2023-05-25T08:38:13.068Z,76.83
2023-05-25T08:40:43.402Z,76.26
2023-05-25T08:43:13.025Z,75.73
2023-05-25T08:45:47.028Z,76.00
2023-05-25T08:48:26.917Z,74.43
2023-05-25T08:50:48.982Z,72.86
2023-05-25T08:53:18.856Z,71.05
2023-05-25T08:55:49.051Z,72.51
2023-05-25T08:58:21.708Z,71.42
2023-05-25T09:00:54.282Z,71.94
2023-05-25T09:03:23.869Z,69.61
2023-05-25T09:05:53.475Z,69.81
2023-05-25T09:08:23.885Z,69.65
2023-05-25T09:10:53.790Z,70.92
2023-05-25T09:13:23.561Z,68.89
2023-05-25T09:15:53.203Z,69.44
2023-05-25T09:18:23.008Z,68.76
2023-05-25T09:20:53.267Z,68.55
2023-05-25T09:23:23.136Z,68.54
2023-05-25T09:25:53.025Z,65.41
2023-05-25T09:28:27.014Z,66.76
2023-05-25T09:30:53.764Z,67.14
2023-05-25T09:33:23.171Z,67.98
2023-05-25T09:35:52.853Z,69.13
2023-05-25T09:38:22.635Z,67.35
2023-05-25T09:40:52.839Z,67.35
2023-05-25T09:43:36.276Z,66.85
2023-05-25T09:45:55.971Z,66.44
2023-05-25T09:48:25.620Z,65.74
2023-05-25T09:50:55.088Z,67.65
2023-05-25T09:53:24.544Z,68.90
2023-05-25T09:55:54.585Z,65.29
2023-05-25T09:58:25.247Z,64.15
2023-05-25T10:00:56.285Z,63.95
2023-05-25T10:03:25.769Z,63.54
2023-05-25T10:05:56.150Z,63.85
2023-05-25T10:08:28.760Z,65.22
2023-05-25T10:10:56.811Z,65.80
2023-05-25T10:13:27.944Z,63.04
2023-05-25T10:15:59.358Z,55.46
2023-05-25T10:18:30.315Z,49.24
2023-05-25T10:21:05.242Z,47.84
2023-05-25T10:23:42.264Z,48.95
2023-05-25T10:26:13.923Z,50.72
2023-05-25T10:28:45.438Z,52.84
2023-05-25T10:31:16.151Z,53.46
2023-05-25T10:33:49.330Z,51.20
2023-05-25T10:36:19.206Z,46.76
2023-05-25T10:38:49.101Z,48.17
2023-05-25T10:41:20.801Z,51.62
2023-05-25T10:43:50.495Z,56.76
2023-05-25T10:46:20.116Z,55.26
2023-05-25T10:48:52.971Z,52.93
2023-05-25T10:51:22.557Z,54.35
2023-05-25T10:53:55.039Z,52.14
2023-05-25T10:56:24.453Z,47.64
2023-05-25T10:58:54.342Z,45.77
2023-05-25T11:01:24.120Z,47.28
2023-05-25T11:03:57.979Z,52.69
2023-05-25T11:06:44.346Z,55.02
2023-05-25T11:09:27.864Z,53.75
2023-05-25T11:12:03.570Z,54.68
2023-05-25T11:14:36.288Z,51.47
2023-05-25T11:17:16.715Z,51.15
2023-05-25T11:19:53.271Z,50.05
2023-05-25T11:22:24.335Z,45.21
2023-05-25T11:24:54.655Z,47.11
2023-05-25T11:27:26.530Z,46.49
2023-05-25T11:29:59.658Z,41.50
2023-05-25T11:32:29.280Z,41.82
2023-05-25T11:34:59.471Z,44.67
2023-05-25T11:37:31.615Z,42.53
2023-05-25T11:40:01.358Z,44.06
2023-05-25T11:42:31.029Z,44.72
2023-05-25T11:45:04.739Z,45.52
2023-05-25T11:47:36.000Z,51.30
2023-05-25T11:50:06.839Z,53.09
2023-05-25T11:52:36.512Z,55.38
2023-05-25T11:55:14.364Z,56.54
2023-05-25T11:57:43.824Z,60.25
2023-05-25T12:00:13.970Z,59.41
2023-05-25T12:02:43.796Z,59.59
2023-05-25T12:05:13.299Z,59.83
2023-05-25T12:07:47.226Z,59.25
2023-05-25T12:10:17.855Z,59.32
2023-05-25T12:12:49.227Z,60.60
2023-05-25T12:15:21.704Z,61.15
2023-05-25T12:17:53.721Z,60.69
2023-05-25T12:20:23.564Z,60.01
2023-05-25T12:22:53.682Z,59.56
2023-05-25T12:25:24.485Z,61.19
2023-05-25T12:28:15.987Z,59.03
2023-05-25T12:30:45.790Z,60.97
2023-05-25T12:33:15.660Z,59.67
2023-05-25T12:35:49.200Z,59.10
2023-05-25T12:38:21.905Z,59.64
2023-05-25T12:41:08.333Z,61.66
2023-05-25T12:43:43.971Z,60.96
2023-05-25T12:46:13.540Z,60.37
2023-05-25T12:48:43.269Z,60.23
2023-05-25T12:51:12.799Z,58.58
2023-05-25T12:53:52.461Z,58.43
2023-05-25T12:56:22.692Z,57.86
2023-05-25T12:58:51.977Z,57.70
2023-05-25T13:01:21.409Z,57.78
2023-05-25T13:03:50.706Z,58.66
2023-05-25T13:06:20.278Z,59.26
2023-05-25T13:08:49.759Z,62.31
2023-05-25T13:11:19.115Z,64.95
2023-05-25T13:13:48.442Z,65.34
2023-05-25T13:16:17.830Z,66.14
2023-05-25T13:18:47.120Z,66.26
2023-05-25T13:21:16.812Z,66.47
2023-05-25T13:23:46.176Z,65.22
2023-05-25T13:26:15.599Z,64.53
2023-05-25T13:28:44.930Z,66.17
2023-05-25T13:31:14.289Z,66.96
2023-05-25T13:33:43.654Z,67.07
2023-05-25T13:36:13.271Z,66.81
2023-05-25T13:38:43.089Z,66.58
2023-05-25T13:41:12.769Z,64.60
2023-05-25T13:43:42.107Z,65.89
2023-05-25T13:46:21.993Z,61.29
2023-05-25T13:48:44.127Z,60.02
2023-05-25T13:51:14.592Z,58.83
2023-05-25T13:53:45.647Z,58.82
2023-05-25T13:56:15.915Z,59.21
2023-05-25T13:58:45.301Z,60.27
2023-05-25T14:01:14.724Z,59.09
2023-05-25T14:03:44.263Z,61.61
2023-05-25T14:06:13.738Z,62.84
2023-05-25T14:08:43.066Z,63.82
2023-05-25T14:11:12.683Z,62.00
2023-05-25T14:13:42.127Z,62.92
2023-05-25T14:16:11.506Z,61.85
2023-05-25T14:18:41.145Z,60.67
2023-05-25T14:21:12.216Z,61.60
2023-05-25T14:23:41.588Z,59.04
2023-05-25T14:26:11.002Z,60.21
2023-05-25T14:28:40.581Z,59.74
2023-05-25T14:31:10.016Z,60.48
2023-05-25T14:33:40.789Z,61.72
2023-05-25T14:36:10.464Z,60.83
2023-05-25T14:38:39.921Z,61.30
2023-05-25T14:41:09.349Z,62.11
2023-05-25T14:43:38.751Z,62.27
2023-05-25T14:46:08.821Z,64.01
2023-05-25T14:48:38.250Z,63.01
2023-05-25T14:51:07.591Z,62.83
2023-05-25T14:53:37.010Z,61.36
2023-05-25T14:56:07.967Z,60.57
2023-05-25T14:58:38.162Z,57.83
2023-05-25T15:01:07.537Z,59.32
2023-05-25T15:03:36.967Z,59.42
2023-05-25T15:06:07.113Z,57.90
2023-05-25T15:08:37.255Z,57.51
2023-05-25T15:11:06.632Z,58.77
2023-05-25T15:13:36.015Z,58.90
2023-05-25T15:16:05.783Z,59.99
2023-05-25T15:18:35.173Z,59.94
2023-05-25T15:21:04.646Z,60.60
2023-05-25T15:23:33.972Z,60.43
2023-05-25T15:26:07.850Z,61.51
2023-05-25T15:28:37.616Z,61.51
2023-05-25T15:31:06.955Z,62.36
2023-05-25T15:33:51.589Z,63.57
2023-05-25T15:36:09.454Z,60.38
2023-05-25T15:38:38.837Z,58.83
2023-05-25T15:41:08.541Z,59.16
2023-05-25T15:43:37.904Z,58.50
2023-05-25T15:46:07.279Z,57.50
2023-05-25T15:48:36.849Z,58.59
2023-05-25T15:51:06.201Z,61.75
2023-05-25T15:53:35.643Z,58.90
2023-05-25T15:56:05.162Z,59.90
2023-05-25T15:58:34.738Z,58.15
2023-05-25T16:01:04.471Z,58.12
2023-05-25T16:03:34.078Z,59.35
2023-05-25T16:06:04.188Z,57.75
2023-05-25T16:08:33.534Z,58.13
2023-05-25T16:11:02.851Z,58.76
2023-05-25T16:13:32.264Z,58.48
2023-05-25T16:16:01.726Z,58.49
2023-05-25T16:18:31.212Z,57.40
2023-05-25T16:21:00.785Z,57.32
2023-05-25T16:23:30.154Z,56.10
2023-05-25T16:25:59.625Z,56.13
2023-05-25T16:28:29.048Z,57.40
2023-05-25T16:30:58.383Z,55.91
2023-05-25T16:33:27.729Z,56.67
2023-05-25T16:35:57.201Z,57.01
2023-05-25T16:38:26.573Z,56.50
2023-05-25T16:40:56.017Z,56.68
2023-05-25T16:43:26.841Z,59.31
2023-05-25T16:45:56.186Z,59.52
2023-05-25T16:48:25.590Z,59.49
2023-05-25T16:50:54.916Z,59.66
2023-05-25T16:53:24.766Z,59.73
2023-05-25T16:55:54.247Z,59.75
2023-05-25T16:58:24.140Z,60.85
2023-05-25T17:00:53.564Z,60.52
2023-05-25T17:03:23.070Z,60.81
2023-05-25T17:05:54.521Z,60.50
2023-05-25T17:08:24.017Z,61.07
2023-05-25T17:10:53.687Z,61.48
2023-05-25T17:13:23.051Z,61.12
2023-05-25T17:15:52.386Z,61.47
2023-05-25T17:18:21.829Z,61.99
2023-05-25T17:20:51.190Z,61.22
2023-05-25T17:23:21.984Z,61.23
2023-05-25T17:25:51.536Z,61.92
2023-05-25T17:28:20.870Z,61.74
2023-05-25T17:30:50.605Z,62.42
2023-05-25T17:33:19.984Z,63.89
2023-05-25T17:35:49.448Z,64.37
2023-05-25T17:38:18.755Z,63.62
2023-05-25T17:40:48.225Z,64.18
2023-05-25T17:43:19.146Z,63.80
2023-05-25T17:45:48.530Z,66.07
2023-05-25T17:48:18.240Z,65.66
2023-05-25T17:50:47.584Z,65.39
2023-05-25T17:53:16.920Z,66.35
2023-05-25T17:55:46.595Z,67.12
2023-05-25T17:58:16.203Z,67.27
2023-05-25T18:00:45.669Z,68.29
2023-05-25T18:03:15.168Z,68.91
2023-05-25T18:05:44.910Z,69.24
2023-05-25T18:08:14.478Z,69.22
2023-05-25T18:10:43.834Z,69.72
2023-05-25T18:13:13.228Z,70.25
2023-05-25T18:15:42.813Z,69.98
2023-05-25T18:18:13.904Z,70.79
2023-05-25T18:20:43.572Z,71.43
2023-05-25T18:23:13.294Z,72.55
2023-05-25T18:25:42.752Z,72.98
2023-05-25T18:28:14.026Z,72.80
2023-05-25T18:30:46.570Z,73.81
2023-05-25T18:33:16.495Z,73.90
2023-05-25T18:35:46.813Z,74.00
2023-05-25T18:38:16.253Z,74.61
2023-05-25T18:40:45.674Z,74.41
2023-05-25T18:43:15.021Z,74.46
2023-05-25T18:45:44.487Z,73.91
2023-05-25T18:48:15.130Z,74.40
2023-05-25T18:50:45.525Z,74.32
2023-05-25T18:53:14.886Z,75.54
2023-05-25T18:55:44.505Z,75.49
2023-05-25T18:58:14.421Z,75.48
2023-05-25T19:00:43.764Z,76.70
2023-05-25T19:03:13.255Z,76.49
2023-05-25T19:05:42.813Z,77.21
2023-05-25T19:08:12.350Z,76.89
2023-05-25T19:10:41.834Z,77.14
2023-05-25T19:13:11.433Z,77.16
2023-05-25T19:15:40.861Z,77.79
2023-05-25T19:18:10.302Z,78.02
2023-05-25T19:20:39.795Z,78.06
2023-05-25T19:23:09.367Z,77.70
2023-05-25T19:25:38.695Z,78.11
2023-05-25T19:28:08.138Z,78.38
2023-05-25T19:30:39.413Z,78.82
2023-05-25T19:33:09.268Z,78.83
2023-05-25T19:35:39.084Z,78.15
2023-05-25T19:38:08.776Z,78.05
2023-05-25T19:40:38.182Z,78.36
2023-05-25T19:43:07.558Z,78.62
2023-05-25T19:45:37.077Z,78.79
2023-05-25T19:48:06.735Z,78.62
2023-05-25T19:50:36.393Z,78.80
2023-05-25T19:53:05.774Z,79.53
2023-05-25T19:55:36.784Z,79.78
2023-05-25T19:58:06.225Z,79.70
2023-05-25T20:00:35.584Z,79.60
2023-05-25T20:03:05.174Z,79.59
2023-05-25T20:05:34.705Z,79.82
2023-05-25T20:08:04.120Z,80.81
2023-05-25T20:10:35.085Z,80.88
2023-05-25T20:13:04.760Z,81.19
2023-05-25T20:15:34.297Z,80.47
2023-05-25T20:18:04.306Z,80.32
2023-05-25T20:20:33.737Z,81.61
2023-05-25T20:23:03.585Z,81.54
2023-05-25T20:25:32.919Z,80.97
2023-05-25T20:28:02.441Z,81.36
2023-05-25T20:30:31.752Z,81.14
2023-05-25T20:33:01.621Z,81.60
2023-05-25T20:35:31.611Z,81.96
2023-05-25T20:38:01.002Z,81.67
2023-05-25T20:40:30.668Z,81.96
2023-05-25T20:43:00.014Z,82.47
2023-05-25T20:45:29.352Z,82.70
2023-05-25T20:48:05.606Z,82.88
2023-05-25T20:50:35.056Z,83.26
2023-05-25T20:53:04.428Z,82.76
2023-05-25T20:55:33.830Z,83.50
2023-05-25T20:58:03.259Z,84.24
2023-05-25T21:00:32.617Z,84.58
2023-05-25T21:03:02.036Z,84.43
2023-05-25T21:05:33.558Z,83.96
2023-05-25T21:08:03.622Z,84.79
2023-05-25T21:10:33.051Z,84.65
2023-05-25T21:13:02.436Z,84.42
2023-05-25T21:15:31.828Z,85.06
2023-05-25T21:18:03.008Z,85.23
2023-05-25T21:20:32.834Z,85.59
2023-05-25T21:23:02.752Z,85.97
2023-05-25T21:25:32.355Z,86.46
2023-05-25T21:28:01.721Z,86.59
2023-05-25T21:30:31.127Z,86.56
2023-05-25T21:33:00.721Z,87.67
2023-05-25T21:35:30.196Z,87.16
2023-05-25T21:37:59.503Z,87.06
2023-05-25T21:40:28.922Z,87.56
2023-05-25T21:42:58.257Z,87.93
2023-05-25T21:45:27.604Z,87.94
2023-05-25T21:47:57.069Z,87.82
2023-05-25T21:50:26.572Z,87.82
2023-05-25T21:52:55.895Z,87.32
2023-05-25T21:55:25.854Z,87.51
2023-05-25T21:57:55.158Z,87.45
2023-05-25T22:00:24.663Z,87.22
2023-05-25T22:02:54.121Z,87.15
2023-05-25T22:05:23.728Z,87.03
2023-05-25T22:07:55.564Z,87.83
2023-05-25T22:10:24.037Z,87.49
2023-05-25T22:12:53.435Z,87.25
2023-05-25T22:15:23.210Z,87.48
2023-05-25T22:17:52.803Z,87.39
2023-05-25T22:20:22.258Z,86.61
2023-05-25T22:22:51.631Z,87.53
2023-05-25T22:25:21.078Z,86.84
2023-05-25T22:27:50.390Z,86.55
2023-05-25T22:30:19.783Z,86.35
2023-05-25T22:32:49.143Z,87.44
2023-05-25T22:35:18.522Z,87.45
2023-05-25T22:37:47.876Z,86.13
2023-05-25T22:40:17.365Z,87.10
2023-05-25T22:42:48.343Z,87.33
2023-05-25T22:45:18.828Z,87.47
2023-05-25T22:47:48.783Z,87.34
2023-05-25T22:50:18.526Z,87.93
2023-05-25T22:52:47.849Z,88.44
2023-05-25T22:55:17.275Z,88.07
2023-05-25T22:57:46.646Z,87.79
2023-05-25T23:00:16.151Z,87.95
2023-05-25T23:02:45.597Z,88.57
2023-05-25T23:05:15.073Z,88.30
2023-05-25T23:07:44.885Z,88.83
2023-05-25T23:10:14.217Z,88.94
2023-05-25T23:12:43.658Z,88.58
2023-05-25T23:15:13.253Z,88.65
2023-05-25T23:17:42.634Z,89.30
2023-05-25T23:20:12.780Z,89.47
2023-05-25T23:22:43.169Z,89.49
2023-05-25T23:25:12.468Z,89.74
2023-05-25T23:27:41.802Z,90.15
2023-05-25T23:30:11.853Z,90.68
2023-05-25T23:32:41.311Z,90.19
2023-05-25T23:35:10.935Z,90.64
2023-05-25T23:37:40.299Z,91.24
2023-05-25T23:40:10.972Z,91.37
2023-05-25T23:42:41.311Z,91.96
2023-05-25T23:45:11.200Z,91.82
2023-05-25T23:47:40.794Z,92.15
2023-05-25T23:50:11.152Z,92.16
2023-05-25T23:52:41.409Z,92.40
2023-05-25T23:55:10.876Z,92.71
2023-05-25T23:57:40.928Z,92.67
